Terminal Aerodrome Forecast
Issued by NWS Atlanta, GA

Home | Current Version | Previous Version | Text Only | Print | Product List | Glossary On
Versions: 1 2 3 4 5 6 7 8 9 10 11 12 13 14 15 16 17 18
000
FTUS42 KFFC 280526
TAFMCN
TAF
KMCN 280526Z 2806/2906 29005KT P6SM SKC
     FM281500 35004KT P6SM SKC
     FM282100 26003KT P6SM SKC
     FM290000 00000KT P6SM SKC=

USA.gov is the U.S. government's official web portal to all federal, state and local government web resources and services.